Americana — A8UZ5 — position and weather

sailwx.info

Track history (hours):
 
Tides and Currents Weather Stations Pressure Air Temp Water Temp Dewpoint Dewpoint Depression Visibility Wind Speed Wind Dir Waves Ship Positions

Americana

Last reported at 2014-Nov-03 12:14 UTC. Time now 2014-Nov-23 17:24 UTC.
Position N 36°31' E 026°40'.
Warning: this ship's position is 20 days out of date.

Length 229 m; draft 14.8 m.

Type: Ship. MMSI: 636014578.

Date/timePositionNaut miles runAvg speedWind from/ knotsBaromVisibWave heightAir tempDewpointWater temp
2014-Nov-03 12:14N 36°31' E 026°40'810.9
2014-Nov-03 11:29N 36°37' E 026°33'1010.7
2014-Nov-03 10:33N 36°45' E 026°25'1110.8
2014-Nov-03 09:33N 36°53' E 026°16'1110.7
2014-Nov-03 08:33N 37°01' E 026°08'1110.8
2014-Nov-03 07:33N 37°11' E 026°02'1110.9
2014-Nov-03 06:33N 37°20' E 025°55'1110.7
2014-Nov-03 05:33N 37°30' E 025°48'1110.7
2014-Nov-03 04:33N 37°40' E 025°44'1110.5
2014-Nov-03 03:32N 37°50' E 025°43'12210.7
2014-Nov-02 16:11N 39°52' E 025°46'70 5.4
2014-Nov-02 03:19N 40°30' E 027°04'7910.2
2014-Nov-01 19:33N 40°54' E 028°44'10 9.1
2014-Nov-01 18:30N 40°58' E 028°55'0 0.5
2014-Nov-01 17:30N 40°57' E 028°56'0 0.1
2014-Nov-01 16:34N 40°58' E 028°56'4 4.2
2014-Nov-01 15:31N 41°01' E 028°60'1510.7
2014-Nov-01 14:09N 41°14' E 029°08'6 9.8
2014-Nov-01 13:32N 41°20' E 029°09'8 8.2
2014-Nov-01 12:34N 41°21' E 029°20'1 1.5
2014-Nov-01 11:34N 41°23' E 029°19'1 1.2
2014-Nov-01 10:34N 41°24' E 029°19'1 1.4
2014-Nov-01 09:33N 41°25' E 029°19'1 1.4
2014-Nov-01 08:33N 41°27' E 029°19'2 1.5
2014-Nov-01 07:25N 41°28' E 029°18'  
2014-Oct-29 07:18N 46°37' E 031°02'7 0.1
2014-Oct-27 04:32N 46°30' E 030°58'0 0.0
2014-Oct-27 03:14N 46°30' E 030°58'0 0.0
2014-Oct-27 02:11N 46°30' E 030°58'0 0.0
2014-Oct-27 01:29N 46°30' E 030°58'0 0.0
2014-Oct-26 22:20N 46°30' E 030°58'  
Track history (hours):
 
Tides and Currents Weather Stations Pressure Air Temp Water Temp Dewpoint Dewpoint Depression Visibility Wind Speed Wind Dir Waves Ship Positions

Americana

Last reported at 2014-Nov-03 12:14 UTC. Time now 2014-Nov-23 17:24 UTC.
Position N 36°31' E 026°40'.
Warning: this ship's position is 20 days out of date.

Length 229 m; draft 14.8 m.

Type: Ship. MMSI: 636014578.

Date/timePositionNaut miles runAvg speedWind from/ knotsBaromVisibWave heightAir tempDewpointWater temp
2014-Nov-03 12:14N 36°31' E 026°40'810.9
2014-Nov-03 11:29N 36°37' E 026°33'1010.7
2014-Nov-03 10:33N 36°45' E 026°25'1110.8
2014-Nov-03 09:33N 36°53' E 026°16'1110.7
2014-Nov-03 08:33N 37°01' E 026°08'1110.8
2014-Nov-03 07:33N 37°11' E 026°02'1110.9
2014-Nov-03 06:33N 37°20' E 025°55'1110.7
2014-Nov-03 05:33N 37°30' E 025°48'1110.7
2014-Nov-03 04:33N 37°40' E 025°44'1110.5
2014-Nov-03 03:32N 37°50' E 025°43'12210.7
2014-Nov-02 16:11N 39°52' E 025°46'70 5.4
2014-Nov-02 03:19N 40°30' E 027°04'7910.2
2014-Nov-01 19:33N 40°54' E 028°44'10 9.1
2014-Nov-01 18:30N 40°58' E 028°55'0 0.5
2014-Nov-01 17:30N 40°57' E 028°56'0 0.1
2014-Nov-01 16:34N 40°58' E 028°56'4 4.2
2014-Nov-01 15:31N 41°01' E 028°60'1510.7
2014-Nov-01 14:09N 41°14' E 029°08'6 9.8
2014-Nov-01 13:32N 41°20' E 029°09'8 8.2
2014-Nov-01 12:34N 41°21' E 029°20'1 1.5
2014-Nov-01 11:34N 41°23' E 029°19'1 1.2
2014-Nov-01 10:34N 41°24' E 029°19'1 1.4
2014-Nov-01 09:33N 41°25' E 029°19'1 1.4
2014-Nov-01 08:33N 41°27' E 029°19'2 1.5
2014-Nov-01 07:25N 41°28' E 029°18'  
2014-Oct-29 07:18N 46°37' E 031°02'7 0.1
2014-Oct-27 04:32N 46°30' E 030°58'0 0.0
2014-Oct-27 03:14N 46°30' E 030°58'0 0.0
2014-Oct-27 02:11N 46°30' E 030°58'0 0.0
2014-Oct-27 01:29N 46°30' E 030°58'0 0.0
2014-Oct-26 22:20N 46°30' E 030°58'  

Dump ship's entire track history